.
WxDataArchive / Data Records for 2006-11-07
2006-11-06 November 2006 2006-11-08

Data Records for Tuesday, 07 November 2006

Time	Temp	Chill	HIndex	Humid	Dewpt	 Wind 	HiWind	WindDir	Rain 	Barom 
-----	----	-----	------	-----	-----	------	------	-------	-----	----- 
00:00	50.8	50.8	50.8	68	40.6	1	3	248	0.00	30.038 
00:05	50.7	50.7	50.7	71	41.6	0	2	248	0.00	30.038 
00:10	50.5	50.5	50.5	73	42.2	0	2	248	0.00	30.038 
00:15	50.4	50.4	50.4	74	42.4	0	2	248	0.00	30.038 
00:20	50.2	50.2	50.2	75	42.6	0	1	248	0.00	30.038 
00:25	50.2	50.2	50.2	76	42.9	0	2	248	0.00	30.038 
00:30	50.1	50.1	50.1	77	43.2	0	0	---	0.00	30.037 
00:35	49.9	49.9	49.9	77	43.0	0	1	248	0.00	30.037 
00:40	49.8	49.8	49.8	78	43.2	0	0	---	0.00	30.037 
00:45	49.8	49.8	49.8	79	43.6	0	0	---	0.00	30.036 
00:50	49.6	49.6	49.6	80	43.7	0	0	---	0.00	30.036 
00:55	49.5	49.5	49.5	81	43.9	0	0	---	0.00	30.036 
01:00	49.5	49.5	49.5	81	43.9	0	1	248	0.00	30.026 
01:05	49.4	49.4	49.4	82	44.1	0	1	248	0.01	30.026 
01:10	49.4	49.4	49.4	83	44.5	0	1	248	0.00	30.026 
01:15	49.2	49.2	49.2	84	44.6	0	0	---	0.00	30.023 
01:20	49.2	49.2	49.2	84	44.6	0	0	---	0.00	30.023 
01:25	49.1	49.1	49.1	85	44.8	0	0	---	0.00	30.023 
01:30	49.1	49.1	49.1	86	45.1	0	1	248	0.01	30.022 
01:35	48.9	48.9	48.9	86	44.9	0	2	248	0.00	30.022 
01:40	48.9	48.9	48.9	88	45.5	0	1	202	0.00	30.022 
01:45	48.8	48.8	48.8	88	45.4	0	1	202	0.01	30.021 
01:50	48.8	48.8	48.8	89	45.7	0	1	202	0.00	30.021 
01:55	48.8	48.8	48.8	89	45.7	0	1	202	0.00	30.021 
02:00	48.8	48.8	48.8	90	46.0	0	1	202	0.00	30.015 
02:05	48.6	48.6	48.6	90	45.8	0	0	---	0.01	30.015 
02:10	48.6	48.6	48.6	91	46.1	0	0	---	0.00	30.015 
02:15	48.6	48.6	48.6	91	46.1	0	0	---	0.00	30.012 
02:20	48.6	48.6	48.6	91	46.1	0	0	---	0.01	30.012 
02:25	48.5	48.5	48.5	92	46.3	0	0	---	0.00	30.012 
02:30	48.5	48.5	48.5	92	46.3	0	0	---	0.01	30.013 
02:35	48.5	48.5	48.5	92	46.3	0	0	---	0.01	30.013 
02:40	48.3	48.3	48.3	93	46.4	0	1	202	0.00	30.013 
02:45	48.3	48.3	48.3	93	46.4	0	1	202	0.01	30.017 
02:50	48.3	48.3	48.3	93	46.4	0	1	202	0.01	30.017 
02:55	48.3	48.3	48.3	94	46.7	0	1	202	0.01	30.017 
03:00	48.2	48.2	48.2	94	46.6	0	2	202	0.00	30.013 
03:05	48.2	48.2	48.2	94	46.6	0	2	202	0.01	30.013 
03:10	48.2	48.2	48.2	94	46.6	1	3	202	0.01	30.013 
03:15	48.2	48.2	48.2	94	46.6	1	2	135	0.00	30.006 
03:20	48.2	48.2	48.2	94	46.6	1	3	112	0.00	30.006 
03:25	48.2	48.2	48.2	94	46.6	1	3	90	0.01	30.006 
03:30	48.2	48.2	48.2	94	46.6	1	4	112	0.00	29.994 
03:35	48.2	48.2	48.2	94	46.6	1	3	68	0.01	29.994 
03:40	48.2	48.2	48.2	94	46.6	1	3	68	0.00	29.994 
03:45	48.2	48.2	48.2	94	46.6	1	3	68	0.01	29.986 
03:50	48.0	48.0	48.0	94	46.4	2	4	68	0.00	29.986 
03:55	48.0	48.0	48.0	94	46.4	1	4	68	0.00	29.986 
04:00	47.9	47.9	47.9	94	46.3	1	3	90	0.00	29.976 
04:05	47.9	47.9	47.9	94	46.3	2	4	90	0.01	29.976 
04:10	47.7	47.7	47.7	94	46.1	2	4	90	0.00	29.976 
04:15	47.7	47.7	47.7	93	45.8	2	4	90	0.00	29.964 
04:20	47.7	47.7	47.7	93	45.8	2	5	90	0.00	29.964 
04:25	47.6	47.6	47.6	93	45.7	1	3	112	0.00	29.964 
04:30	47.6	47.6	47.6	93	45.7	2	3	112	0.00	29.960 
04:35	47.4	47.4	47.4	93	45.5	2	4	90	0.00	29.960 
04:40	47.4	47.4	47.4	93	45.5	2	5	112	0.00	29.960 
04:45	47.4	47.4	47.4	93	45.5	2	5	90	0.00	29.961 
04:50	47.3	47.3	47.3	93	45.4	2	4	90	0.00	29.961 
04:55	47.3	47.3	47.3	93	45.4	2	5	90	0.01	29.961 
05:00	47.1	47.1	47.1	93	45.2	2	4	90	0.00	29.957 
05:05	47.1	47.1	47.1	93	45.2	3	6	90	0.00	29.957 
05:10	47.0	47.0	47.0	93	45.1	3	6	90	0.00	29.957 
05:15	47.0	47.0	47.0	93	45.1	2	6	90	0.00	29.957 
05:20	47.0	47.0	47.0	93	45.1	2	5	90	0.01	29.957 
05:25	47.0	47.0	47.0	93	45.1	2	4	112	0.00	29.957 
05:30	46.8	46.8	46.8	93	44.9	2	4	112	0.00	29.950 
05:35	46.8	46.8	46.8	93	44.9	2	4	112	0.00	29.950 
05:40	46.8	46.8	46.8	93	44.9	2	4	90	0.00	29.950 
05:45	46.7	46.7	46.7	93	44.8	2	4	90	0.01	29.945 
05:50	46.7	46.7	46.7	93	44.8	2	4	112	0.00	29.945 
05:55	46.7	46.7	46.7	93	44.8	2	4	112	0.00	29.945 
06:00	46.5	46.5	46.5	93	44.6	2	4	90	0.00	29.937 
06:05	46.5	46.5	46.5	93	44.6	2	4	112	0.00	29.937 
06:10	46.5	46.5	46.5	93	44.6	2	6	112	0.00	29.937 
06:15	46.5	46.5	46.5	92	44.3	3	7	112	0.00	29.931 
06:20	46.5	46.5	46.5	93	44.6	2	4	90	0.01	29.931 
06:25	46.4	46.4	46.4	93	44.5	2	4	90	0.01	29.931 
06:30	46.4	46.4	46.4	93	44.5	2	5	90	0.04	29.932 
06:35	46.2	46.2	46.2	94	44.6	1	2	90	0.01	29.932 
06:40	46.2	46.2	46.2	94	44.6	1	4	90	0.00	29.932 
06:45	46.1	46.1	46.1	94	44.5	2	4	90	0.01	29.922 
06:50	46.1	46.1	46.1	94	44.5	2	4	90	0.01	29.922 
06:55	46.0	46.0	46.0	95	44.6	2	4	90	0.01	29.922 
07:00	46.0	46.0	46.0	95	44.6	2	4	90	0.00	29.917 
07:05	46.0	46.0	46.0	95	44.6	2	4	90	0.01	29.917 
07:10	46.0	46.0	46.0	95	44.6	2	4	90	0.00	29.917 
07:15	46.0	46.0	46.0	95	44.6	2	4	90	0.00	29.910 
07:20	46.0	46.0	46.0	95	44.6	2	4	90	0.01	29.910 
07:25	46.0	46.0	46.0	96	44.9	2	5	90	0.00	29.910 
07:30	46.0	46.0	46.0	96	44.9	2	5	90	0.01	29.912 
07:35	46.0	46.0	46.0	96	44.9	2	5	90	0.00	29.912 
07:40	46.0	46.0	46.0	96	44.9	2	5	90	0.01	29.912 
07:45	46.0	46.0	46.0	96	44.9	2	4	90	0.01	29.908 
07:50	46.0	46.0	46.0	96	44.9	2	6	112	0.01	29.908 
07:55	46.0	46.0	46.0	96	44.9	2	4	90	0.00	29.908 
08:00	46.1	46.1	46.1	96	45.0	3	4	90	0.01	29.903 
08:05	46.1	46.1	46.1	96	45.0	2	4	90	0.00	29.903 
08:10	46.1	46.1	46.1	96	45.0	1	4	90	0.00	29.903 
08:15	46.2	46.2	46.2	96	45.1	1	2	90	0.01	29.906 
08:20	46.2	46.2	46.2	96	45.1	1	3	90	0.00	29.906 
08:25	46.2	46.2	46.2	96	45.1	1	3	90	0.00	29.906 
08:30	46.2	46.2	46.2	96	45.1	1	3	90	0.00	29.905 
08:35	46.4	46.4	46.4	96	45.3	1	3	112	0.00	29.905 
08:40	46.4	46.4	46.4	96	45.3	0	2	135	0.01	29.905 
08:45	46.5	46.5	46.5	96	45.4	1	2	135	0.00	29.901 
08:50	46.7	46.7	46.7	96	45.6	1	2	112	0.00	29.901 
08:55	46.8	46.8	46.8	96	45.7	1	3	112	0.00	29.901 
09:00	47.0	47.0	47.0	96	45.9	1	3	112	0.00	29.897 
09:05	47.0	47.0	47.0	97	46.2	0	2	112	0.00	29.897 
09:10	47.1	47.1	47.1	97	46.3	0	2	112	0.01	29.897 
09:15	47.3	47.3	47.3	97	46.5	1	2	135	0.00	29.893 
09:20	47.6	47.6	47.6	97	46.8	1	3	112	0.00	29.893 
09:25	47.7	47.7	47.7	97	46.9	1	2	112	0.00	29.893 
09:30	48.0	48.0	48.0	97	47.2	1	2	90	0.00	29.888 
09:35	48.2	48.2	48.2	97	47.4	1	4	90	0.00	29.888 
09:40	48.3	48.3	48.3	97	47.5	0	2	135	0.00	29.888 
09:45	48.5	48.5	48.5	97	47.7	1	2	112	0.00	29.884 
09:50	48.6	48.6	48.6	97	47.8	2	4	112	0.00	29.884 
09:55	48.6	48.6	48.6	97	47.8	1	3	90	0.00	29.884 
10:00	48.8	48.8	48.8	97	48.0	2	4	90	0.00	29.884 
10:05	48.8	48.8	48.8	96	47.7	1	2	112	0.00	29.884 
10:10	48.8	48.8	48.8	96	47.7	1	3	135	0.01	29.884 
10:15	48.8	48.8	48.8	96	47.7	1	3	90	0.00	29.883 
10:20	48.9	48.9	48.9	96	47.8	1	3	90	0.00	29.883 
10:25	48.9	48.9	48.9	96	47.8	1	3	90	0.00	29.883 
10:30	48.9	48.9	48.9	96	47.8	1	5	112	0.01	29.883 
10:35	49.1	49.1	49.1	96	48.0	0	3	112	0.00	29.883 
10:40	49.2	49.2	49.2	96	48.1	1	3	90	0.01	29.883 
10:45	49.2	49.2	49.2	96	48.1	1	4	90	0.00	29.881 
10:50	49.4	49.4	49.4	96	48.3	1	3	180	0.00	29.881 
10:55	49.4	49.4	49.4	96	48.3	1	4	90	0.00	29.881 
11:00	49.5	49.5	49.5	96	48.4	1	3	90	0.00	29.876 
11:05	49.5	49.5	49.5	96	48.4	1	3	90	0.01	29.876 
11:10	49.5	49.5	49.5	96	48.4	1	2	112	0.00	29.876 
11:15	49.5	49.5	49.5	96	48.4	1	2	90	0.00	29.870 
11:20	49.6	49.6	49.6	96	48.5	1	3	90	0.00	29.870 
11:25	49.6	49.6	49.6	96	48.5	1	3	68	0.00	29.870 
11:30	49.6	49.6	49.6	96	48.5	1	7	90	0.00	29.863 
11:35	49.8	49.8	49.8	96	48.7	1	3	45	0.00	29.863 
11:40	49.9	49.9	49.9	97	49.1	1	3	90	0.00	29.863 
11:45	49.9	49.9	49.9	97	49.1	1	4	90	0.00	29.854 
11:50	50.1	50.1	50.1	97	49.3	2	5	45	0.00	29.854 
11:55	50.2	50.2	50.2	97	49.4	2	5	90	0.01	29.854 
12:00	50.2	50.2	50.2	97	49.4	1	3	135	0.00	29.846 
12:05	50.4	50.4	50.4	97	49.6	1	4	90	0.00	29.846 
12:10	50.5	50.5	50.5	97	49.7	1	4	90	0.00	29.846 
12:15	50.8	50.8	50.8	97	50.0	1	2	90	0.00	29.839 
12:20	50.8	50.8	50.8	97	50.0	1	5	90	0.00	29.839 
12:25	51.0	51.0	51.0	97	50.2	1	4	68	0.00	29.839 
12:30	51.1	51.1	51.1	97	50.3	1	3	112	0.00	29.834 
12:35	51.1	51.1	51.1	97	50.3	1	4	68	0.00	29.834 
12:40	51.3	51.3	51.3	97	50.5	1	4	112	0.00	29.834 
12:45	51.3	51.3	51.3	97	50.5	1	5	112	0.00	29.823 
12:50	51.4	51.4	51.4	97	50.6	1	3	90	0.00	29.823 
12:55	51.4	51.4	51.4	97	50.6	1	3	90	0.00	29.823 
13:00	51.6	51.6	51.6	96	50.5	1	4	112	0.00	29.812 
13:05	51.6	51.6	51.6	96	50.5	1	5	112	0.00	29.812 
13:10	51.6	51.6	51.6	96	50.5	1	3	90	0.00	29.812 
13:15	51.6	51.6	51.6	96	50.5	1	4	45	0.00	29.805 
13:20	51.6	51.6	51.6	96	50.5	1	3	112	0.00	29.805 
13:25	51.7	51.7	51.7	96	50.6	2	4	90	0.00	29.805 
13:30	51.9	51.9	51.9	96	50.8	2	5	90	0.00	29.791 
13:35	52.0	52.0	52.0	96	50.9	1	4	112	0.00	29.791 
13:40	52.2	52.2	52.2	96	51.1	1	6	248	0.00	29.791 
13:45	52.0	52.0	52.0	95	50.6	1	4	90	0.00	29.796 
13:50	52.0	52.0	52.0	95	50.6	1	2	270	0.00	29.796 
13:55	52.0	52.0	52.0	95	50.6	0	2	270	0.00	29.796 
14:00	52.0	52.0	52.0	94	50.3	1	3	270	0.00	29.793 
14:05	52.0	52.0	52.0	94	50.3	1	3	270	0.00	29.793 
14:10	52.0	52.0	52.0	94	50.3	0	3	270	0.00	29.793 
14:15	52.0	52.0	52.0	94	50.3	0	3	270	0.00	29.788 
14:20	52.0	52.0	52.0	94	50.3	0	3	270	0.00	29.788 
14:25	52.0	52.0	52.0	94	50.3	0	2	270	0.00	29.788 
14:30	52.0	52.0	52.0	94	50.3	0	3	248	0.00	29.781 
14:35	52.2	52.2	52.2	94	50.5	0	2	248	0.00	29.781 
14:40	52.2	52.2	52.2	94	50.5	0	2	248	0.00	29.781 
14:45	52.2	52.2	52.2	94	50.5	0	1	248	0.00	29.775 
14:50	52.2	52.2	52.2	94	50.5	0	2	248	0.00	29.775 
14:55	52.2	52.2	52.2	94	50.5	0	1	248	0.00	29.775 
15:00	52.2	52.2	52.2	94	50.5	0	3	135	0.00	29.774 
15:05	52.2	52.2	52.2	94	50.5	0	4	135	0.00	29.774 
15:10	52.2	52.2	52.2	94	50.5	0	2	112	0.00	29.774 
15:15	52.3	52.3	52.3	94	50.6	0	2	112	0.00	29.772 
15:20	52.3	52.3	52.3	95	50.9	0	2	112	0.00	29.772 
15:25	52.3	52.3	52.3	95	50.9	1	2	90	0.00	29.772 
15:30	52.3	52.3	52.3	95	50.9	0	2	90	0.00	29.768 
15:35	52.3	52.3	52.3	95	50.9	0	1	90	0.00	29.768 
15:40	52.3	52.3	52.3	95	50.9	0	1	90	0.00	29.768 
15:45	52.3	52.3	52.3	95	50.9	0	1	90	0.00	29.767 
15:50	52.3	52.3	52.3	95	50.9	0	2	90	0.00	29.767 
15:55	52.2	52.2	52.2	95	50.8	0	2	90	0.00	29.767 
16:00	52.2	52.2	52.2	95	50.8	0	2	90	0.00	29.769 
16:05	52.2	52.2	52.2	95	50.8	0	2	90	0.00	29.769 
16:10	52.2	52.2	52.2	95	50.8	0	2	90	0.00	29.769 
16:15	52.0	52.0	52.0	95	50.6	0	2	90	0.00	29.764 
16:20	52.0	52.0	52.0	95	50.6	0	3	90	0.00	29.764 
16:25	52.0	52.0	52.0	95	50.6	0	1	68	0.00	29.764 
16:30	52.0	52.0	52.0	95	50.6	0	1	68	0.00	29.763 
16:35	52.0	52.0	52.0	95	50.6	0	2	68	0.00	29.763 
16:40	52.0	52.0	52.0	95	50.6	0	1	68	0.00	29.763 
16:45	52.0	52.0	52.0	95	50.6	0	0	---	0.00	29.765 
16:50	52.0	52.0	52.0	95	50.6	0	1	68	0.00	29.765 
16:55	52.0	52.0	52.0	95	50.6	0	1	68	0.00	29.765 
17:00	52.0	52.0	52.0	95	50.6	0	1	68	0.00	29.764 
17:05	52.0	52.0	52.0	95	50.6	0	1	68	0.00	29.764 
17:10	52.0	52.0	52.0	95	50.6	0	1	68	0.00	29.764 
17:15	52.0	52.0	52.0	95	50.6	0	1	68	0.00	29.764 
17:20	52.0	52.0	52.0	95	50.6	0	0	---	0.00	29.764 
17:25	52.0	52.0	52.0	95	50.6	0	1	68	0.00	29.764 
17:30	52.0	52.0	52.0	95	50.6	0	1	68	0.00	29.764 
17:35	52.0	52.0	52.0	95	50.6	0	1	68	0.00	29.764 
17:40	52.0	52.0	52.0	95	50.6	0	1	68	0.00	29.764 
17:45	52.0	52.0	52.0	95	50.6	0	1	68	0.00	29.767 
17:50	52.0	52.0	52.0	95	50.6	0	0	---	0.00	29.767 
17:55	52.0	52.0	52.0	95	50.6	0	1	68	0.00	29.767 
18:00	52.0	52.0	52.0	95	50.6	0	1	68	0.00	29.762 
18:05	52.0	52.0	52.0	95	50.6	0	1	68	0.00	29.762 
18:10	52.0	52.0	52.0	95	50.6	0	1	68	0.00	29.762 
18:15	52.0	52.0	52.0	95	50.6	0	2	68	0.00	29.759 
18:20	52.0	52.0	52.0	95	50.6	1	4	112	0.00	29.759 
18:25	52.0	52.0	52.0	95	50.6	0	2	112	0.00	29.759 
18:30	51.9	51.9	51.9	95	50.5	0	1	112	0.00	29.761 
18:35	51.9	51.9	51.9	95	50.5	0	1	112	0.00	29.761 
18:40	51.9	51.9	51.9	95	50.5	0	1	112	0.00	29.761 
18:45	51.9	51.9	51.9	95	50.5	0	1	112	0.00	29.769 
18:50	51.9	51.9	51.9	95	50.5	0	2	112	0.00	29.769 
18:55	51.9	51.9	51.9	95	50.5	0	1	112	0.00	29.769 
19:00	51.9	51.9	51.9	95	50.5	0	2	135	0.00	29.776 
19:05	52.0	52.0	52.0	95	50.6	0	1	180	0.00	29.776 
19:10	51.9	51.9	51.9	95	50.5	0	0	---	0.00	29.776 
19:15	51.9	51.9	51.9	95	50.5	0	0	---	0.00	29.769 
19:20	51.9	51.9	51.9	95	50.5	0	0	---	0.00	29.769 
19:25	51.9	51.9	51.9	95	50.5	0	0	---	0.00	29.769 
19:30	51.9	51.9	51.9	95	50.5	0	0	---	0.00	29.768 
19:35	51.9	51.9	51.9	95	50.5	0	0	---	0.00	29.768 
19:40	51.9	51.9	51.9	95	50.5	0	2	180	0.00	29.768 
19:45	51.9	51.9	51.9	95	50.5	0	1	180	0.00	29.772 
19:50	51.9	51.9	51.9	95	50.5	0	1	180	0.00	29.772 
19:55	51.9	51.9	51.9	95	50.5	0	0	---	0.00	29.772 
20:00	51.9	51.9	51.9	95	50.5	0	0	---	0.00	29.774 
20:05	51.7	51.7	51.7	95	50.3	0	0	---	0.00	29.774 
20:10	51.7	51.7	51.7	95	50.3	0	0	---	0.00	29.774 
20:15	51.7	51.7	51.7	95	50.3	0	0	---	0.00	29.773 
20:20	51.7	51.7	51.7	95	50.3	0	0	---	0.00	29.773 
20:25	51.7	51.7	51.7	95	50.3	0	0	---	0.00	29.773 
20:30	51.6	51.6	51.6	96	50.5	0	0	---	0.00	29.764 
20:35	51.6	51.6	51.6	96	50.5	0	0	---	0.00	29.764 
20:40	51.6	51.6	51.6	96	50.5	0	0	---	0.00	29.764 
20:45	51.6	51.6	51.6	96	50.5	0	0	---	0.00	29.761 
20:50	51.6	51.6	51.6	96	50.5	0	0	---	0.00	29.761 
20:55	51.6	51.6	51.6	96	50.5	0	0	---	0.00	29.761 
21:00	51.6	51.6	51.6	96	50.5	0	0	---	0.00	29.760 
21:05	51.4	51.4	51.4	96	50.3	0	0	---	0.00	29.760 
21:10	51.4	51.4	51.4	96	50.3	0	0	---	0.00	29.760 
21:15	51.4	51.4	51.4	96	50.3	0	0	---	0.00	29.757 
21:20	51.4	51.4	51.4	96	50.3	0	0	---	0.00	29.757 
21:25	51.4	51.4	51.4	96	50.3	0	0	---	0.00	29.757 
21:30	51.4	51.4	51.4	96	50.3	0	0	---	0.00	29.757 
21:35	51.4	51.4	51.4	96	50.3	0	1	180	0.00	29.757 
21:40	51.4	51.4	51.4	96	50.3	0	0	---	0.00	29.757 
21:45	51.4	51.4	51.4	96	50.3	0	0	---	0.00	29.751 
21:50	51.4	51.4	51.4	96	50.3	0	0	---	0.00	29.751 
21:55	51.4	51.4	51.4	96	50.3	0	1	180	0.00	29.751 
22:00	51.4	51.4	51.4	96	50.3	0	0	---	0.00	29.752 
22:05	51.4	51.4	51.4	96	50.3	0	0	---	0.00	29.752 
22:10	51.4	51.4	51.4	96	50.3	0	1	180	0.00	29.752 
22:15	51.4	51.4	51.4	96	50.3	0	2	180	0.00	29.746 
22:20	51.4	51.4	51.4	96	50.3	0	0	---	0.00	29.746 
22:25	51.4	51.4	51.4	96	50.3	0	0	---	0.00	29.746 
22:30	51.4	51.4	51.4	97	50.6	0	0	---	0.00	29.745 
22:35	51.4	51.4	51.4	96	50.3	0	1	180	0.00	29.745 
22:40	51.4	51.4	51.4	97	50.6	0	0	---	0.00	29.745 
22:45	51.4	51.4	51.4	97	50.6	0	1	180	0.00	29.743 
22:50	51.4	51.4	51.4	97	50.6	0	1	180	0.00	29.743 
22:55	51.4	51.4	51.4	97	50.6	0	2	158	0.00	29.743 
23:00	51.4	51.4	51.4	97	50.6	0	1	158	0.00	29.740 
23:05	51.3	51.3	51.3	97	50.5	0	1	158	0.00	29.740 
23:10	51.1	51.1	51.1	97	50.3	0	1	158	0.00	29.740 
23:15	51.1	51.1	51.1	97	50.3	0	0	---	0.00	29.737 
23:20	51.1	51.1	51.1	97	50.3	0	1	158	0.00	29.737 
23:25	51.1	51.1	51.1	97	50.3	0	1	158	0.00	29.737 
23:30	51.1	51.1	51.1	97	50.3	0	1	158	0.00	29.729 
23:35	51.1	51.1	51.1	97	50.3	0	1	158	0.00	29.729 
23:40	51.1	51.1	51.1	97	50.3	0	1	158	0.00	29.729 
23:45	51.1	51.1	51.1	97	50.3	0	1	158	0.00	29.732 
23:50	51.1	51.1	51.1	97	50.3	0	1	158	0.00	29.732 
23:55	51.3	51.3	51.3	97	50.5	0	1	158	0.00	29.732 

CoCoRaHS
IN-AL-39
A2 Web Hosting
Creative Commons License
GoDaddy
Look for:

loaded 2017-12-11 06:51:34 • last modified 2010-11-18 10:43:29
Privacy PolicyDisclaimer
• wx.awcolley.com is powered by PmWiki v.2002016 •
• all content (unless otherwise noted) © 2017 A W Colley